sensor_id;sensor_type;location;lat;lon;timestamp;P1;durP1;ratioP1;P2;durP2;ratioP2
8074;SDS011;4080;42.676;23.372;2022-12-07T00:02:26;36.20;;;19.37;;
8074;SDS011;4080;42.676;23.372;2022-12-07T00:04:52;30.10;;;18.43;;
8074;SDS011;4080;42.676;23.372;2022-12-07T00:07:19;33.10;;;17.90;;
8074;SDS011;4080;42.676;23.372;2022-12-07T00:09:47;31.47;;;18.73;;
8074;SDS011;4080;42.676;23.372;2022-12-07T00:12:14;33.67;;;19.27;;
8074;SDS011;4080;42.676;23.372;2022-12-07T00:14:40;34.50;;;19.63;;
8074;SDS011;4080;42.676;23.372;2022-12-07T00:17:07;30.67;;;17.57;;
8074;SDS011;4080;42.676;23.372;2022-12-07T00:19:34;34.23;;;19.57;;
8074;SDS011;4080;42.676;23.372;2022-12-07T00:22:00;31.47;;;18.23;;
8074;SDS011;4080;42.676;23.372;2022-12-07T00:24:27;34.50;;;19.80;;
8074;SDS011;4080;42.676;23.372;2022-12-07T00:26:55;32.67;;;18.17;;
8074;SDS011;4080;42.676;23.372;2022-12-07T00:29:22;30.83;;;17.53;;
8074;SDS011;4080;42.676;23.372;2022-12-07T00:31:49;29.13;;;17.23;;
8074;SDS011;4080;42.676;23.372;2022-12-07T00:34:16;32.03;;;18.43;;
8074;SDS011;4080;42.676;23.372;2022-12-07T00:36:44;31.80;;;19.10;;
8074;SDS011;4080;42.676;23.372;2022-12-07T00:39:11;31.20;;;19.67;;
8074;SDS011;4080;42.676;23.372;2022-12-07T00:41:37;30.80;;;18.97;;
8074;SDS011;4080;42.676;23.372;2022-12-07T00:44:05;29.53;;;17.50;;
8074;SDS011;4080;42.676;23.372;2022-12-07T00:46:32;33.33;;;19.57;;
8074;SDS011;4080;42.676;23.372;2022-12-07T00:48:59;35.23;;;18.77;;
8074;SDS011;4080;42.676;23.372;2022-12-07T00:51:26;38.17;;;18.57;;
8074;SDS011;4080;42.676;23.372;2022-12-07T00:53:53;31.20;;;18.37;;
8074;SDS011;4080;42.676;23.372;2022-12-07T00:56:20;33.13;;;19.40;;
8074;SDS011;4080;42.676;23.372;2022-12-07T00:58:51;30.57;;;19.00;;
8074;SDS011;4080;42.676;23.372;2022-12-07T01:01:21;31.30;;;19.00;;
8074;SDS011;4080;42.676;23.372;2022-12-07T01:03:48;30.60;;;18.50;;
8074;SDS011;4080;42.676;23.372;2022-12-07T01:06:15;31.70;;;18.60;;
8074;SDS011;4080;42.676;23.372;2022-12-07T01:08:42;31.17;;;19.50;;
8074;SDS011;4080;42.676;23.372;2022-12-07T01:11:11;32.17;;;18.13;;
8074;SDS011;4080;42.676;23.372;2022-12-07T01:13:39;32.10;;;19.17;;
8074;SDS011;4080;42.676;23.372;2022-12-07T01:16:06;33.10;;;19.00;;
8074;SDS011;4080;42.676;23.372;2022-12-07T01:18:35;34.03;;;18.40;;
8074;SDS011;4080;42.676;23.372;2022-12-07T01:21:03;31.67;;;18.27;;
8074;SDS011;4080;42.676;23.372;2022-12-07T01:23:31;32.27;;;18.53;;
8074;SDS011;4080;42.676;23.372;2022-12-07T01:26:00;27.97;;;17.53;;
8074;SDS011;4080;42.676;23.372;2022-12-07T01:28:28;32.57;;;19.53;;
8074;SDS011;4080;42.676;23.372;2022-12-07T01:30:56;36.93;;;18.57;;
8074;SDS011;4080;42.676;23.372;2022-12-07T01:33:23;29.00;;;18.00;;
8074;SDS011;4080;42.676;23.372;2022-12-07T01:35:52;37.13;;;18.90;;
8074;SDS011;4080;42.676;23.372;2022-12-07T01:38:18;29.93;;;18.27;;
8074;SDS011;4080;42.676;23.372;2022-12-07T01:40:45;30.63;;;18.90;;
8074;SDS011;4080;42.676;23.372;2022-12-07T01:43:19;28.47;;;18.27;;
8074;SDS011;4080;42.676;23.372;2022-12-07T01:45:46;28.87;;;17.00;;
8074;SDS011;4080;42.676;23.372;2022-12-07T01:48:14;30.57;;;17.77;;
8074;SDS011;4080;42.676;23.372;2022-12-07T01:50:44;30.93;;;19.43;;
8074;SDS011;4080;42.676;23.372;2022-12-07T01:53:15;30.97;;;18.63;;
8074;SDS011;4080;42.676;23.372;2022-12-07T01:55:44;31.40;;;19.40;;
8074;SDS011;4080;42.676;23.372;2022-12-07T01:58:13;37.23;;;19.10;;
8074;SDS011;4080;42.676;23.372;2022-12-07T02:00:41;31.37;;;18.73;;
8074;SDS011;4080;42.676;23.372;2022-12-07T02:03:09;31.50;;;18.53;;
8074;SDS011;4080;42.676;23.372;2022-12-07T02:05:40;32.13;;;19.17;;
8074;SDS011;4080;42.676;23.372;2022-12-07T02:08:08;32.60;;;18.37;;
8074;SDS011;4080;42.676;23.372;2022-12-07T02:10:38;30.40;;;18.77;;
8074;SDS011;4080;42.676;23.372;2022-12-07T02:13:06;32.33;;;19.17;;
8074;SDS011;4080;42.676;23.372;2022-12-07T02:15:58;31.40;;;19.47;;
8074;SDS011;4080;42.676;23.372;2022-12-07T02:18:39;31.40;;;19.73;;
8074;SDS011;4080;42.676;23.372;2022-12-07T02:21:14;34.90;;;19.67;;
8074;SDS011;4080;42.676;23.372;2022-12-07T02:27:05;31.97;;;19.27;;
8074;SDS011;4080;42.676;23.372;2022-12-07T02:29:46;35.13;;;18.87;;
8074;SDS011;4080;42.676;23.372;2022-12-07T02:32:21;32.00;;;20.17;;
8074;SDS011;4080;42.676;23.372;2022-12-07T02:34:54;29.17;;;17.87;;
8074;SDS011;4080;42.676;23.372;2022-12-07T02:37:27;29.80;;;18.57;;
8074;SDS011;4080;42.676;23.372;2022-12-07T02:40:14;28.97;;;18.63;;
8074;SDS011;4080;42.676;23.372;2022-12-07T02:42:45;34.67;;;19.53;;
8074;SDS011;4080;42.676;23.372;2022-12-07T02:45:17;31.10;;;18.70;;
8074;SDS011;4080;42.676;23.372;2022-12-07T02:47:48;33.27;;;18.87;;
8074;SDS011;4080;42.676;23.372;2022-12-07T02:50:19;31.33;;;17.80;;
8074;SDS011;4080;42.676;23.372;2022-12-07T02:52:46;32.87;;;19.47;;
8074;SDS011;4080;42.676;23.372;2022-12-07T02:55:14;34.23;;;19.13;;
8074;SDS011;4080;42.676;23.372;2022-12-07T02:57:53;34.70;;;19.43;;
8074;SDS011;4080;42.676;23.372;2022-12-07T03:00:34;36.97;;;20.23;;
8074;SDS011;4080;42.676;23.372;2022-12-07T03:03:11;30.87;;;19.17;;
8074;SDS011;4080;42.676;23.372;2022-12-07T03:05:46;27.13;;;18.17;;
8074;SDS011;4080;42.676;23.372;2022-12-07T03:08:28;30.77;;;19.43;;
8074;SDS011;4080;42.676;23.372;2022-12-07T03:11:02;30.67;;;18.57;;
8074;SDS011;4080;42.676;23.372;2022-12-07T03:13:33;29.50;;;18.20;;
8074;SDS011;4080;42.676;23.372;2022-12-07T03:16:07;34.87;;;20.47;;
8074;SDS011;4080;42.676;23.372;2022-12-07T03:18:39;30.83;;;20.60;;
8074;SDS011;4080;42.676;23.372;2022-12-07T03:21:11;33.80;;;20.50;;
8074;SDS011;4080;42.676;23.372;2022-12-07T03:23:42;31.07;;;20.20;;
8074;SDS011;4080;42.676;23.372;2022-12-07T03:26:12;31.13;;;20.03;;
8074;SDS011;4080;42.676;23.372;2022-12-07T03:28:42;32.23;;;21.77;;
8074;SDS011;4080;42.676;23.372;2022-12-07T03:31:16;35.67;;;19.40;;
8074;SDS011;4080;42.676;23.372;2022-12-07T03:33:49;31.50;;;19.50;;
8074;SDS011;4080;42.676;23.372;2022-12-07T03:36:24;31.13;;;18.73;;
8074;SDS011;4080;42.676;23.372;2022-12-07T03:38:56;38.83;;;20.97;;
8074;SDS011;4080;42.676;23.372;2022-12-07T03:41:27;36.23;;;22.63;;
8074;SDS011;4080;42.676;23.372;2022-12-07T03:43:57;39.07;;;22.17;;
8074;SDS011;4080;42.676;23.372;2022-12-07T03:46:29;38.10;;;21.50;;
8074;SDS011;4080;42.676;23.372;2022-12-07T03:49:05;33.87;;;21.03;;
8074;SDS011;4080;42.676;23.372;2022-12-07T03:51:38;33.87;;;19.17;;
8074;SDS011;4080;42.676;23.372;2022-12-07T03:54:10;35.97;;;19.27;;
8074;SDS011;4080;42.676;23.372;2022-12-07T03:56:40;29.80;;;19.57;;
8074;SDS011;4080;42.676;23.372;2022-12-07T03:59:09;34.27;;;19.00;;
8074;SDS011;4080;42.676;23.372;2022-12-07T04:01:42;35.00;;;20.33;;
8074;SDS011;4080;42.676;23.372;2022-12-07T04:04:09;33.10;;;19.47;;
8074;SDS011;4080;42.676;23.372;2022-12-07T04:06:36;38.43;;;21.87;;
8074;SDS011;4080;42.676;23.372;2022-12-07T04:09:03;37.40;;;21.53;;
8074;SDS011;4080;42.676;23.372;2022-12-07T04:11:30;36.30;;;20.20;;
8074;SDS011;4080;42.676;23.372;2022-12-07T04:13:56;34.20;;;21.03;;
8074;SDS011;4080;42.676;23.372;2022-12-07T04:16:42;38.90;;;21.27;;
8074;SDS011;4080;42.676;23.372;2022-12-07T04:19:08;36.60;;;21.23;;
8074;SDS011;4080;42.676;23.372;2022-12-07T04:21:35;38.33;;;25.50;;
8074;SDS011;4080;42.676;23.372;2022-12-07T04:24:02;39.90;;;21.67;;
8074;SDS011;4080;42.676;23.372;2022-12-07T04:26:29;39.73;;;20.97;;
8074;SDS011;4080;42.676;23.372;2022-12-07T04:28:55;40.03;;;23.23;;
8074;SDS011;4080;42.676;23.372;2022-12-07T04:31:22;37.40;;;22.53;;
8074;SDS011;4080;42.676;23.372;2022-12-07T04:33:50;35.23;;;20.30;;
8074;SDS011;4080;42.676;23.372;2022-12-07T04:36:17;44.47;;;20.40;;
8074;SDS011;4080;42.676;23.372;2022-12-07T04:38:44;35.80;;;20.23;;
8074;SDS011;4080;42.676;23.372;2022-12-07T04:41:11;36.37;;;20.10;;
8074;SDS011;4080;42.676;23.372;2022-12-07T04:43:38;37.77;;;20.87;;
8074;SDS011;4080;42.676;23.372;2022-12-07T04:46:05;40.30;;;20.63;;
8074;SDS011;4080;42.676;23.372;2022-12-07T04:48:32;36.83;;;21.83;;
8074;SDS011;4080;42.676;23.372;2022-12-07T04:51:00;40.87;;;21.83;;
8074;SDS011;4080;42.676;23.372;2022-12-07T04:53:28;34.93;;;20.77;;
8074;SDS011;4080;42.676;23.372;2022-12-07T04:55:54;45.47;;;22.63;;
8074;SDS011;4080;42.676;23.372;2022-12-07T04:58:21;39.93;;;21.57;;
8074;SDS011;4080;42.676;23.372;2022-12-07T05:00:48;35.00;;;22.10;;
8074;SDS011;4080;42.676;23.372;2022-12-07T05:03:14;38.97;;;23.10;;
8074;SDS011;4080;42.676;23.372;2022-12-07T05:05:41;42.50;;;23.13;;
8074;SDS011;4080;42.676;23.372;2022-12-07T05:08:09;45.43;;;23.97;;
8074;SDS011;4080;42.676;23.372;2022-12-07T05:10:36;40.10;;;24.20;;
8074;SDS011;4080;42.676;23.372;2022-12-07T05:13:03;36.67;;;22.60;;
8074;SDS011;4080;42.676;23.372;2022-12-07T05:15:29;44.67;;;24.23;;
8074;SDS011;4080;42.676;23.372;2022-12-07T05:17:56;42.93;;;25.17;;
8074;SDS011;4080;42.676;23.372;2022-12-07T05:20:23;40.63;;;24.23;;
8074;SDS011;4080;42.676;23.372;2022-12-07T05:22:49;44.00;;;22.93;;
8074;SDS011;4080;42.676;23.372;2022-12-07T05:25:17;48.23;;;25.07;;
8074;SDS011;4080;42.676;23.372;2022-12-07T05:27:44;44.10;;;24.53;;
8074;SDS011;4080;42.676;23.372;2022-12-07T05:30:11;44.40;;;25.27;;
8074;SDS011;4080;42.676;23.372;2022-12-07T05:32:38;42.77;;;23.40;;
8074;SDS011;4080;42.676;23.372;2022-12-07T05:35:05;49.60;;;26.60;;
8074;SDS011;4080;42.676;23.372;2022-12-07T05:37:32;45.73;;;25.00;;
8074;SDS011;4080;42.676;23.372;2022-12-07T05:39:59;45.83;;;25.73;;
8074;SDS011;4080;42.676;23.372;2022-12-07T05:42:27;55.43;;;25.70;;
8074;SDS011;4080;42.676;23.372;2022-12-07T05:44:54;47.97;;;26.50;;
8074;SDS011;4080;42.676;23.372;2022-12-07T05:47:21;49.47;;;26.40;;
8074;SDS011;4080;42.676;23.372;2022-12-07T05:49:47;51.73;;;25.87;;
8074;SDS011;4080;42.676;23.372;2022-12-07T05:52:14;46.43;;;24.90;;
8074;SDS011;4080;42.676;23.372;2022-12-07T05:54:41;51.17;;;26.17;;
8074;SDS011;4080;42.676;23.372;2022-12-07T05:57:08;53.80;;;31.33;;
8074;SDS011;4080;42.676;23.372;2022-12-07T05:59:36;51.93;;;29.47;;
8074;SDS011;4080;42.676;23.372;2022-12-07T06:02:02;48.87;;;26.87;;
8074;SDS011;4080;42.676;23.372;2022-12-07T06:04:31;49.30;;;26.03;;
8074;SDS011;4080;42.676;23.372;2022-12-07T06:07:00;53.57;;;27.87;;
8074;SDS011;4080;42.676;23.372;2022-12-07T06:09:27;50.57;;;28.50;;
8074;SDS011;4080;42.676;23.372;2022-12-07T06:11:55;51.37;;;25.97;;
8074;SDS011;4080;42.676;23.372;2022-12-07T06:14:41;53.43;;;24.67;;
8074;SDS011;4080;42.676;23.372;2022-12-07T06:17:08;76.87;;;43.80;;
8074;SDS011;4080;42.676;23.372;2022-12-07T06:19:35;60.33;;;30.07;;
8074;SDS011;4080;42.676;23.372;2022-12-07T06:22:02;51.10;;;29.20;;
8074;SDS011;4080;42.676;23.372;2022-12-07T06:24:30;44.87;;;28.10;;
8074;SDS011;4080;42.676;23.372;2022-12-07T06:26:57;58.30;;;31.70;;
8074;SDS011;4080;42.676;23.372;2022-12-07T06:29:24;54.60;;;30.93;;
8074;SDS011;4080;42.676;23.372;2022-12-07T06:31:53;62.00;;;32.17;;
8074;SDS011;4080;42.676;23.372;2022-12-07T06:34:20;58.20;;;29.80;;
8074;SDS011;4080;42.676;23.372;2022-12-07T06:36:48;58.17;;;32.67;;
8074;SDS011;4080;42.676;23.372;2022-12-07T06:39:18;61.47;;;31.17;;
8074;SDS011;4080;42.676;23.372;2022-12-07T06:41:45;56.13;;;31.83;;
8074;SDS011;4080;42.676;23.372;2022-12-07T06:44:12;66.10;;;30.97;;
8074;SDS011;4080;42.676;23.372;2022-12-07T06:46:39;54.70;;;29.87;;
8074;SDS011;4080;42.676;23.372;2022-12-07T06:49:07;57.43;;;32.57;;
8074;SDS011;4080;42.676;23.372;2022-12-07T06:51:34;57.33;;;31.30;;
8074;SDS011;4080;42.676;23.372;2022-12-07T06:54:01;49.13;;;29.17;;
8074;SDS011;4080;42.676;23.372;2022-12-07T06:56:28;54.03;;;29.20;;
8074;SDS011;4080;42.676;23.372;2022-12-07T06:58:55;57.20;;;32.00;;
8074;SDS011;4080;42.676;23.372;2022-12-07T07:01:22;63.90;;;34.57;;
8074;SDS011;4080;42.676;23.372;2022-12-07T07:03:49;67.50;;;37.37;;
8074;SDS011;4080;42.676;23.372;2022-12-07T07:06:17;69.67;;;35.03;;
8074;SDS011;4080;42.676;23.372;2022-12-07T07:08:44;62.33;;;34.50;;
8074;SDS011;4080;42.676;23.372;2022-12-07T07:11:10;54.50;;;31.90;;
8074;SDS011;4080;42.676;23.372;2022-12-07T07:13:37;53.70;;;29.30;;
8074;SDS011;4080;42.676;23.372;2022-12-07T07:16:05;47.53;;;27.47;;
8074;SDS011;4080;42.676;23.372;2022-12-07T07:18:32;38.57;;;22.60;;
8074;SDS011;4080;42.676;23.372;2022-12-07T07:20:59;45.90;;;21.50;;
8074;SDS011;4080;42.676;23.372;2022-12-07T07:23:27;43.83;;;22.50;;
8074;SDS011;4080;42.676;23.372;2022-12-07T07:25:54;42.00;;;23.50;;
8074;SDS011;4080;42.676;23.372;2022-12-07T07:28:21;47.03;;;25.73;;
8074;SDS011;4080;42.676;23.372;2022-12-07T07:30:48;48.30;;;32.10;;
8074;SDS011;4080;42.676;23.372;2022-12-07T07:33:15;55.17;;;33.47;;
8074;SDS011;4080;42.676;23.372;2022-12-07T07:35:42;42.00;;;28.33;;
8074;SDS011;4080;42.676;23.372;2022-12-07T07:38:08;58.27;;;34.27;;
8074;SDS011;4080;42.676;23.372;2022-12-07T07:40:36;57.60;;;38.00;;
8074;SDS011;4080;42.676;23.372;2022-12-07T07:43:03;58.73;;;39.47;;
8074;SDS011;4080;42.676;23.372;2022-12-07T07:45:30;68.93;;;40.27;;
8074;SDS011;4080;42.676;23.372;2022-12-07T07:47:57;55.30;;;35.23;;
8074;SDS011;4080;42.676;23.372;2022-12-07T07:50:23;60.10;;;38.70;;
8074;SDS011;4080;42.676;23.372;2022-12-07T07:52:50;72.43;;;45.97;;
8074;SDS011;4080;42.676;23.372;2022-12-07T07:55:17;89.03;;;57.17;;
8074;SDS011;4080;42.676;23.372;2022-12-07T07:57:45;91.43;;;58.87;;
8074;SDS011;4080;42.676;23.372;2022-12-07T08:00:13;82.33;;;54.37;;
8074;SDS011;4080;42.676;23.372;2022-12-07T08:02:41;65.63;;;43.87;;
8074;SDS011;4080;42.676;23.372;2022-12-07T08:05:08;61.07;;;42.03;;
8074;SDS011;4080;42.676;23.372;2022-12-07T08:07:36;56.17;;;35.47;;
8074;SDS011;4080;42.676;23.372;2022-12-07T08:10:02;48.17;;;32.13;;
8074;SDS011;4080;42.676;23.372;2022-12-07T08:12:30;48.77;;;32.67;;
8074;SDS011;4080;42.676;23.372;2022-12-07T08:14:58;50.03;;;33.33;;
8074;SDS011;4080;42.676;23.372;2022-12-07T08:17:25;52.90;;;34.07;;
8074;SDS011;4080;42.676;23.372;2022-12-07T08:19:52;50.77;;;33.20;;
8074;SDS011;4080;42.676;23.372;2022-12-07T08:22:18;56.07;;;34.40;;
8074;SDS011;4080;42.676;23.372;2022-12-07T08:24:45;58.97;;;32.93;;
8074;SDS011;4080;42.676;23.372;2022-12-07T08:27:12;48.20;;;31.07;;
8074;SDS011;4080;42.676;23.372;2022-12-07T08:29:38;51.17;;;32.23;;
8074;SDS011;4080;42.676;23.372;2022-12-07T08:32:06;44.20;;;30.37;;
8074;SDS011;4080;42.676;23.372;2022-12-07T08:34:33;52.37;;;30.73;;
8074;SDS011;4080;42.676;23.372;2022-12-07T08:37:00;46.13;;;28.20;;
8074;SDS011;4080;42.676;23.372;2022-12-07T08:39:27;39.40;;;27.07;;
8074;SDS011;4080;42.676;23.372;2022-12-07T08:41:54;40.53;;;27.53;;
8074;SDS011;4080;42.676;23.372;2022-12-07T08:44:21;44.10;;;27.93;;
8074;SDS011;4080;42.676;23.372;2022-12-07T08:46:48;44.07;;;29.00;;
8074;SDS011;4080;42.676;23.372;2022-12-07T08:49:20;43.40;;;27.57;;
8074;SDS011;4080;42.676;23.372;2022-12-07T08:51:50;46.33;;;28.50;;
8074;SDS011;4080;42.676;23.372;2022-12-07T08:54:17;45.63;;;28.57;;
8074;SDS011;4080;42.676;23.372;2022-12-07T08:56:45;50.17;;;31.30;;
8074;SDS011;4080;42.676;23.372;2022-12-07T08:59:14;45.00;;;31.00;;
8074;SDS011;4080;42.676;23.372;2022-12-07T09:01:43;43.23;;;29.03;;
8074;SDS011;4080;42.676;23.372;2022-12-07T09:04:10;45.73;;;29.43;;
8074;SDS011;4080;42.676;23.372;2022-12-07T09:06:38;42.17;;;27.90;;
8074;SDS011;4080;42.676;23.372;2022-12-07T09:09:05;42.63;;;26.83;;
8074;SDS011;4080;42.676;23.372;2022-12-07T09:11:33;38.43;;;26.53;;
8074;SDS011;4080;42.676;23.372;2022-12-07T09:14:00;41.20;;;25.67;;
8074;SDS011;4080;42.676;23.372;2022-12-07T09:16:27;41.87;;;26.83;;
8074;SDS011;4080;42.676;23.372;2022-12-07T09:18:53;42.03;;;27.57;;
8074;SDS011;4080;42.676;23.372;2022-12-07T09:21:20;46.53;;;28.90;;
8074;SDS011;4080;42.676;23.372;2022-12-07T09:23:48;43.43;;;30.70;;
8074;SDS011;4080;42.676;23.372;2022-12-07T09:26:15;43.77;;;28.43;;
8074;SDS011;4080;42.676;23.372;2022-12-07T09:28:42;46.80;;;27.47;;
8074;SDS011;4080;42.676;23.372;2022-12-07T09:31:08;43.60;;;27.57;;
8074;SDS011;4080;42.676;23.372;2022-12-07T09:33:35;47.23;;;28.63;;
8074;SDS011;4080;42.676;23.372;2022-12-07T09:36:03;42.27;;;27.20;;
8074;SDS011;4080;42.676;23.372;2022-12-07T09:38:30;46.53;;;27.47;;
8074;SDS011;4080;42.676;23.372;2022-12-07T09:40:59;47.00;;;27.80;;
8074;SDS011;4080;42.676;23.372;2022-12-07T09:43:31;43.50;;;27.00;;
8074;SDS011;4080;42.676;23.372;2022-12-07T09:45:58;43.03;;;27.23;;
8074;SDS011;4080;42.676;23.372;2022-12-07T09:48:25;43.67;;;27.70;;
8074;SDS011;4080;42.676;23.372;2022-12-07T09:50:57;46.33;;;28.10;;
8074;SDS011;4080;42.676;23.372;2022-12-07T09:53:25;45.10;;;26.67;;
8074;SDS011;4080;42.676;23.372;2022-12-07T09:55:54;44.07;;;27.87;;
8074;SDS011;4080;42.676;23.372;2022-12-07T09:58:23;41.07;;;27.70;;
8074;SDS011;4080;42.676;23.372;2022-12-07T10:01:05;44.77;;;27.53;;
8074;SDS011;4080;42.676;23.372;2022-12-07T10:03:39;41.67;;;26.43;;
8074;SDS011;4080;42.676;23.372;2022-12-07T10:06:15;40.33;;;26.33;;
8074;SDS011;4080;42.676;23.372;2022-12-07T10:08:42;41.80;;;26.97;;
8074;SDS011;4080;42.676;23.372;2022-12-07T10:11:08;48.07;;;27.07;;
8074;SDS011;4080;42.676;23.372;2022-12-07T10:13:38;37.47;;;26.07;;
8074;SDS011;4080;42.676;23.372;2022-12-07T10:16:06;42.63;;;27.17;;
8074;SDS011;4080;42.676;23.372;2022-12-07T10:18:53;43.67;;;27.13;;
8074;SDS011;4080;42.676;23.372;2022-12-07T10:21:20;42.73;;;25.83;;
8074;SDS011;4080;42.676;23.372;2022-12-07T10:24:02;40.13;;;26.27;;
8074;SDS011;4080;42.676;23.372;2022-12-07T10:26:31;45.03;;;28.40;;
8074;SDS011;4080;42.676;23.372;2022-12-07T10:29:00;39.80;;;25.20;;
8074;SDS011;4080;42.676;23.372;2022-12-07T10:31:39;39.07;;;25.03;;
8074;SDS011;4080;42.676;23.372;2022-12-07T10:34:12;36.87;;;24.07;;
8074;SDS011;4080;42.676;23.372;2022-12-07T10:36:47;36.23;;;23.37;;
8074;SDS011;4080;42.676;23.372;2022-12-07T10:39:14;34.47;;;23.30;;
8074;SDS011;4080;42.676;23.372;2022-12-07T10:41:55;34.90;;;23.00;;
8074;SDS011;4080;42.676;23.372;2022-12-07T10:44:26;36.70;;;23.23;;
8074;SDS011;4080;42.676;23.372;2022-12-07T10:50:07;44.27;;;27.20;;
8074;SDS011;4080;42.676;23.372;2022-12-07T10:52:51;34.53;;;21.77;;
8074;SDS011;4080;42.676;23.372;2022-12-07T10:55:33;38.00;;;24.40;;
8074;SDS011;4080;42.676;23.372;2022-12-07T11:01:10;31.83;;;23.40;;
8074;SDS011;4080;42.676;23.372;2022-12-07T11:03:49;31.30;;;21.83;;
8074;SDS011;4080;42.676;23.372;2022-12-07T11:06:25;33.80;;;23.20;;
8074;SDS011;4080;42.676;23.372;2022-12-07T11:09:19;37.07;;;22.73;;
8074;SDS011;4080;42.676;23.372;2022-12-07T11:12:02;40.50;;;20.90;;
8074;SDS011;4080;42.676;23.372;2022-12-07T11:14:36;29.40;;;19.90;;
8074;SDS011;4080;42.676;23.372;2022-12-07T11:17:14;24.60;;;17.27;;
8074;SDS011;4080;42.676;23.372;2022-12-07T11:19:49;28.40;;;17.50;;
8074;SDS011;4080;42.676;23.372;2022-12-07T11:22:29;25.00;;;17.40;;
8074;SDS011;4080;42.676;23.372;2022-12-07T11:25:15;27.07;;;16.53;;
8074;SDS011;4080;42.676;23.372;2022-12-07T11:27:52;29.20;;;17.37;;
8074;SDS011;4080;42.676;23.372;2022-12-07T11:30:28;29.60;;;18.30;;
8074;SDS011;4080;42.676;23.372;2022-12-07T11:33:12;27.93;;;17.67;;
8074;SDS011;4080;42.676;23.372;2022-12-07T11:35:47;32.13;;;18.50;;
8074;SDS011;4080;42.676;23.372;2022-12-07T11:38:21;22.83;;;14.70;;
8074;SDS011;4080;42.676;23.372;2022-12-07T11:40:53;19.70;;;12.03;;
8074;SDS011;4080;42.676;23.372;2022-12-07T11:43:37;18.27;;;13.00;;
8074;SDS011;4080;42.676;23.372;2022-12-07T11:46:18;15.77;;;12.00;;
8074;SDS011;4080;42.676;23.372;2022-12-07T11:48:52;24.07;;;12.90;;
8074;SDS011;4080;42.676;23.372;2022-12-07T11:51:25;27.50;;;15.37;;
8074;SDS011;4080;42.676;23.372;2022-12-07T11:53:57;25.20;;;13.67;;
8074;SDS011;4080;42.676;23.372;2022-12-07T11:56:28;21.63;;;13.03;;
8074;SDS011;4080;42.676;23.372;2022-12-07T11:58:57;21.17;;;12.87;;
8074;SDS011;4080;42.676;23.372;2022-12-07T12:01:32;22.13;;;13.13;;
8074;SDS011;4080;42.676;23.372;2022-12-07T12:04:14;22.03;;;13.67;;
8074;SDS011;4080;42.676;23.372;2022-12-07T12:06:53;25.20;;;14.40;;
8074;SDS011;4080;42.676;23.372;2022-12-07T12:09:21;30.13;;;15.60;;
8074;SDS011;4080;42.676;23.372;2022-12-07T12:12:01;23.33;;;13.80;;
8074;SDS011;4080;42.676;23.372;2022-12-07T12:14:46;26.43;;;15.10;;
8074;SDS011;4080;42.676;23.372;2022-12-07T12:17:33;23.70;;;14.97;;
8074;SDS011;4080;42.676;23.372;2022-12-07T12:20:21;22.63;;;15.37;;
8074;SDS011;4080;42.676;23.372;2022-12-07T12:22:53;23.83;;;15.70;;
8074;SDS011;4080;42.676;23.372;2022-12-07T12:25:25;25.83;;;15.93;;
8074;SDS011;4080;42.676;23.372;2022-12-07T12:27:55;21.43;;;14.77;;
8074;SDS011;4080;42.676;23.372;2022-12-07T12:30:30;24.40;;;16.13;;
8074;SDS011;4080;42.676;23.372;2022-12-07T12:33:06;24.17;;;15.77;;
8074;SDS011;4080;42.676;23.372;2022-12-07T12:35:42;25.83;;;15.40;;
8074;SDS011;4080;42.676;23.372;2022-12-07T12:38:26;26.40;;;15.10;;
8074;SDS011;4080;42.676;23.372;2022-12-07T12:40:56;29.23;;;14.87;;
8074;SDS011;4080;42.676;23.372;2022-12-07T12:46:36;26.20;;;15.83;;
8074;SDS011;4080;42.676;23.372;2022-12-07T12:49:33;29.47;;;16.07;;
8074;SDS011;4080;42.676;23.372;2022-12-07T12:55:22;24.13;;;15.17;;
8074;SDS011;4080;42.676;23.372;2022-12-07T12:58:28;25.10;;;14.37;;
8074;SDS011;4080;42.676;23.372;2022-12-07T13:04:14;20.67;;;14.50;;
8074;SDS011;4080;42.676;23.372;2022-12-07T13:06:54;22.03;;;14.37;;
8074;SDS011;4080;42.676;23.372;2022-12-07T13:09:23;22.20;;;14.97;;
8074;SDS011;4080;42.676;23.372;2022-12-07T13:11:58;22.33;;;14.60;;
8074;SDS011;4080;42.676;23.372;2022-12-07T13:14:43;25.77;;;15.23;;
8074;SDS011;4080;42.676;23.372;2022-12-07T13:20:45;22.97;;;13.83;;
8074;SDS011;4080;42.676;23.372;2022-12-07T13:23:13;20.53;;;14.73;;
8074;SDS011;4080;42.676;23.372;2022-12-07T13:25:45;25.37;;;14.77;;
8074;SDS011;4080;42.676;23.372;2022-12-07T13:28:19;25.40;;;14.57;;
8074;SDS011;4080;42.676;23.372;2022-12-07T13:30:57;26.10;;;14.17;;
8074;SDS011;4080;42.676;23.372;2022-12-07T13:33:29;28.43;;;14.77;;
8074;SDS011;4080;42.676;23.372;2022-12-07T13:35:56;21.93;;;14.23;;
8074;SDS011;4080;42.676;23.372;2022-12-07T13:38:27;23.43;;;14.17;;
8074;SDS011;4080;42.676;23.372;2022-12-07T13:40:59;24.87;;;13.57;;
8074;SDS011;4080;42.676;23.372;2022-12-07T13:43:29;22.53;;;13.63;;
8074;SDS011;4080;42.676;23.372;2022-12-07T13:45:56;23.17;;;13.50;;
8074;SDS011;4080;42.676;23.372;2022-12-07T13:48:24;21.90;;;13.70;;
8074;SDS011;4080;42.676;23.372;2022-12-07T13:50:57;23.30;;;13.20;;
8074;SDS011;4080;42.676;23.372;2022-12-07T13:53:26;21.30;;;13.67;;
8074;SDS011;4080;42.676;23.372;2022-12-07T13:55:55;23.80;;;13.93;;
8074;SDS011;4080;42.676;23.372;2022-12-07T13:58:23;23.17;;;13.83;;
8074;SDS011;4080;42.676;23.372;2022-12-07T14:00:51;33.93;;;15.87;;
8074;SDS011;4080;42.676;23.372;2022-12-07T14:03:31;30.10;;;14.60;;
8074;SDS011;4080;42.676;23.372;2022-12-07T14:06:06;24.90;;;14.87;;
8074;SDS011;4080;42.676;23.372;2022-12-07T14:09:05;24.57;;;14.50;;
8074;SDS011;4080;42.676;23.372;2022-12-07T14:11:42;21.17;;;13.20;;
8074;SDS011;4080;42.676;23.372;2022-12-07T14:14:10;23.50;;;13.33;;
8074;SDS011;4080;42.676;23.372;2022-12-07T14:16:41;24.17;;;13.63;;
8074;SDS011;4080;42.676;23.372;2022-12-07T14:22:07;23.37;;;13.83;;
8074;SDS011;4080;42.676;23.372;2022-12-07T14:24:41;25.00;;;13.53;;
8074;SDS011;4080;42.676;23.372;2022-12-07T14:27:15;30.27;;;14.67;;
8074;SDS011;4080;42.676;23.372;2022-12-07T14:29:44;30.23;;;16.63;;
8074;SDS011;4080;42.676;23.372;2022-12-07T14:32:19;23.33;;;14.33;;
8074;SDS011;4080;42.676;23.372;2022-12-07T14:34:53;27.13;;;13.73;;
8074;SDS011;4080;42.676;23.372;2022-12-07T14:37:24;24.03;;;14.43;;
8074;SDS011;4080;42.676;23.372;2022-12-07T14:39:51;23.30;;;13.83;;
8074;SDS011;4080;42.676;23.372;2022-12-07T14:42:17;26.97;;;13.90;;
8074;SDS011;4080;42.676;23.372;2022-12-07T14:44:45;21.37;;;12.97;;
8074;SDS011;4080;42.676;23.372;2022-12-07T14:47:12;24.07;;;14.30;;
8074;SDS011;4080;42.676;23.372;2022-12-07T14:49:40;25.30;;;14.87;;
8074;SDS011;4080;42.676;23.372;2022-12-07T14:52:08;22.73;;;13.63;;
8074;SDS011;4080;42.676;23.372;2022-12-07T14:54:40;26.57;;;13.77;;
8074;SDS011;4080;42.676;23.372;2022-12-07T14:57:08;24.80;;;14.23;;
8074;SDS011;4080;42.676;23.372;2022-12-07T14:59:35;28.63;;;16.10;;
8074;SDS011;4080;42.676;23.372;2022-12-07T15:02:02;30.47;;;15.80;;
8074;SDS011;4080;42.676;23.372;2022-12-07T15:04:29;25.43;;;15.83;;
8074;SDS011;4080;42.676;23.372;2022-12-07T15:06:57;31.27;;;15.07;;
8074;SDS011;4080;42.676;23.372;2022-12-07T15:09:25;25.50;;;15.40;;
8074;SDS011;4080;42.676;23.372;2022-12-07T15:11:52;23.53;;;14.83;;
8074;SDS011;4080;42.676;23.372;2022-12-07T15:14:19;25.30;;;14.23;;
8074;SDS011;4080;42.676;23.372;2022-12-07T15:16:45;26.03;;;15.13;;
8074;SDS011;4080;42.676;23.372;2022-12-07T15:19:13;34.37;;;17.70;;